Bodega Marine Reserve, California Weather observations

Data are for 10 minute period ending at time listed.
 Day   Time   Solar   Ave.   Ave.  Ave.  Vector  Max.   Baro.   Total    
  of    of     Rad.   Air    Rel.  Wind   Wind   Wind  Press.  Precip.   
Year   Day            Temp.  Hum.  Speed  Dir.   Gust                    
2017   (PST)  Kw/m2    F      %     mph   deg.    mph    mb.     in.     
-------------------------------------------------------------------------
  16    7:10   100.00  99999.0   99999  99999.0   99999   99999.0   99999.0   99999.00 
  16    7:20   100.00  99999.0   99999  99999.0   99999   99999.0   99999.0   99999.00 
  16    7:30   100.00  99999.0   99999  99999.0   99999   99999.0   99999.0   99999.00 
  16    7:40   100.00  99999.0   99999  99999.0   99999   99999.0   99999.0   99999.00 
  16    7:50   100.00  99999.0   99999  99999.0   99999   99999.0   99999.0   99999.00 
  16    8:00   0.00  99999.0   99999    8.6    76   99999.0   99999.0   99999.00 
  16    8:10   0.00   39.3    91    7.9    72    12.2   1018.0    0.00 
  16    8:20   0.00   39.3    91    8.1    71    12.0   1018.0    0.00 
  16    8:30   0.00   39.3    91    8.1    72    13.6   1017.6    0.00 
  16    8:40   0.00   39.4    91   11.3    77    16.4   1017.6    0.00 
  16    8:50   0.01   39.1    92   11.4    76    15.9   1017.6    0.00 
  16    9:00   0.01   39.1    92    9.8    80    13.4   1017.6    0.00 
  16    9:10   0.03   38.9    92    9.5    85    14.7   1018.0    0.00 
  16    9:20   0.07   38.8    93   10.7    87    14.4   1018.0    0.00 
  16    9:30   0.12   39.2    92    9.8    81    13.3   1018.0    0.00 
  16    9:40   0.10   39.1    92    9.5    80    14.3   1018.3    0.00 
  16    9:50   0.11   39.0    92    8.4    84    12.9   1018.6    0.00 
  16   10:00   0.10   39.7    92    7.7    90    11.7   1018.6    0.00 
  16   10:10   100.00  99999.0   99999  99999.0   99999   99999.0   99999.0   99999.00 
  16   10:20   100.00  99999.0   99999  99999.0   99999   99999.0   99999.0   99999.00 
  16   10:30   100.00  99999.0   99999  99999.0   99999   99999.0   99999.0   99999.00 
  16   10:40   100.00  99999.0   99999  99999.0   99999   99999.0   99999.0   99999.00 
  16   10:50   100.00  99999.0   99999  99999.0   99999   99999.0   99999.0   99999.00 
  16   11:00   0.31   43.6    85   10.2    88    13.8   1019.0    0.00 
  16   11:10   0.31   43.6    84    9.5    91    13.2   1019.3    0.00 
  16   11:20   0.35   44.0    84   10.5    90    13.8   1019.3    0.00 
  16   11:30   0.35   44.4    83   10.6    92    14.2   1019.3    0.00 
  16   11:40   0.37   45.1    82    7.5    97    11.6   1019.3    0.00 
  16   11:50   0.39   45.2    81    9.3    96    13.0   1019.3    0.00 
  16   12:00   0.41   45.8    81    8.2    96    11.8   1019.3    0.00 
  16   12:10   0.43   46.4    80    8.6    88    11.5   1019.3    0.00 
  16   12:20   0.42   47.2    78    9.0    87    11.8   1019.3    0.00 
  16   12:30   0.45   47.8    77    8.5    89    12.5   1019.3    0.00 
  16   12:40   0.45   48.0    76    7.9    94    11.8   1019.3    0.00 
  16   12:50   0.46   48.3    76    6.3   102    10.3   1019.3    0.00 
  16   13:00   0.46   48.7    75    4.4   126     6.9   1019.6    0.00 
  16   13:10   0.47   48.6    75    4.9    95     8.2   1019.3    0.00 
  16   13:20   0.47   49.6    74    6.4    97     8.9   1019.0    0.00 
  16   13:30   0.47   50.2    73    6.6   102    10.4   1018.6    0.00 
  16   13:40   0.47   50.6    73    4.7   114     8.4   1018.3    0.00 
  16   13:50   0.47   51.6    71    4.7   121     8.6   1018.3    0.00 
  16   14:00   0.47   52.0    68    4.4   121     7.5   1018.0    0.00 
  16   14:10   0.45   52.0    68    5.3   128     8.4   1018.0    0.00 
  16   14:20   0.44   51.6    69    5.7   137     8.6   1018.0    0.00 
  16   14:30   0.45   51.7    70    5.3   147     7.6   1017.6    0.00 
  16   14:40   0.43   51.6    70    4.2   146     6.2   1017.6    0.00 
  16   14:50   0.43   52.0    71    4.9   185     8.2   1017.6    0.00 
  16   15:00   0.41   52.9    70    5.5   219     8.3   1017.6    0.00 
  16   15:10   0.40   52.5    71    6.5   223     8.6   1017.6    0.01 
  16   15:20   0.38   52.2    72    6.9   219     8.8   1017.3    0.00 
  16   15:30   0.35   52.4    72    6.9   217     9.7   1017.3    0.00 
  16   15:40   0.33   52.3    72    6.6   230     8.8   1017.3    0.00 
  16   15:50   0.31   51.2    74    7.2   253     9.8   1017.6    0.00 
  16   16:00   0.24   50.6    75    7.0   261     9.3   1017.3    0.00 
  16   16:10   100.00  99999.0   99999  99999.0   99999   99999.0   99999.0   99999.00 
  16   16:20   100.00  99999.0   99999  99999.0   99999   99999.0   99999.0   99999.00 
  16   16:30   100.00  99999.0   99999  99999.0   99999   99999.0   99999.0   99999.00 
  16   16:40   100.00  99999.0   99999  99999.0   99999   99999.0   99999.0   99999.00 
  16   16:50   100.00  99999.0   99999  99999.0   99999   99999.0   99999.0   99999.00 
  16   17:00   0.07   48.4    82    5.3   241     7.8   1017.3    0.00 
  16   17:10   0.05   47.8    83    5.6   244     7.8   1017.6    0.00 
  16   17:20   0.05   47.7    83    4.7   233     6.1   1017.3    0.00 
  16   17:30   0.04   47.8    83    5.1   235     7.1   1017.3    0.00 
  16   17:40   0.03   47.5    83    5.1   238     6.6   1017.6    0.00 
  16   17:50   0.01   47.4    84    3.4   211     5.9   1017.3    0.00 
  16   18:00   0.01   47.2    83    2.1   182     3.5   1017.3    0.00 
  16   18:10   0.00   47.2    83    0.9   233     2.6   1017.3    0.00 
  16   18:20   0.00   47.2    83    1.7   282     3.3   1017.6    0.00 
  16   18:30   0.00   47.1    84    2.8   282     4.5   1017.6    0.00 
  16   18:40   0.00   47.2    84    3.6   284     5.0   1017.6    0.00 
  16   18:50   0.00   47.2    85    4.0   278     6.2   1017.6    0.00 
  16   19:00   0.00   47.2    85    3.7   281     4.8   1017.6    0.00 
  16   19:10   0.00   47.2    86    3.7   274     5.3   1017.6    0.00 
  16   19:20   0.00   47.1    86    2.6   289     4.2   1017.3    0.00 
  16   19:30   0.00   47.1    86    1.4   305     2.7   1017.3    0.00 
  16   19:40   0.00   47.0    86    2.0   279     3.7   1017.3    0.00 
  16   19:50   0.00   47.0    85    1.2   298     2.3   1017.3    0.00 
  16   20:00   0.00   46.9    85    1.4   254     2.8   1017.3    0.00 
  16   20:10   100.00  99999.0   99999  99999.0   99999   99999.0   99999.0   99999.00 
  16   20:20   100.00  99999.0   99999  99999.0   99999   99999.0   99999.0   99999.00 
  16   20:30   100.00  99999.0   99999  99999.0   99999   99999.0   99999.0   99999.00 
  16   20:40   100.00  99999.0   99999  99999.0   99999   99999.0   99999.0   99999.00 
  16   20:50   0.00   46.5    86    2.5    17     5.6   1014.6   23.40 
  16   21:00   0.00   46.4    86    1.6    65     3.6   1017.6    0.00 
  16   21:10   0.00   46.3    86    0.6    40     3.1   1017.6    0.00 
  16   21:20   0.00   46.3    86    0.9   291     2.9   1017.6    0.00 
  16   21:30   0.00   45.9    86    3.0   339     5.1   1017.6    0.00 
  16   21:40   0.00   45.7    87    1.9    16     4.7   1017.6    0.00 
  16   21:50   0.00   45.7    87    1.3   298     2.1   1017.3    0.00 
  16   22:00   0.00   45.4    87    2.3     9     3.9   1017.3    0.00 
  16   22:10   0.00   45.3    88    3.2    24     5.3   1017.3    0.00 
  16   22:20   0.00   45.0    88    4.1    64     6.1   1017.3    0.00 
  16   22:30   0.00   44.7    89    3.0    66     4.4   1017.3    0.00 
  16   22:40   0.00   44.3    89    1.6   330     3.4   1017.3    0.00 
  16   22:50   0.00   44.3    90    2.4    14     4.3   1016.9    0.00 
  16   23:00   0.00   44.1    90    2.7    52     3.9   1016.9    0.00 
  16   23:10   0.00   44.0    90    1.6    58     2.3   1016.9    0.00 
  16   23:20   0.00   43.6    90    1.7    45     3.3   1016.6    0.00 
  16   23:30   0.00   43.4    91    1.6    77     3.4   1016.6    0.00 
  16   23:40   0.00   43.6    91    2.0    81     4.1   1016.6    0.00 
  16   23:50   0.00   43.6    91    4.0    77     5.6   1016.6    0.00 
  17    0:00   0.00   43.5    92    4.1    92     5.7   1016.6    0.00 
  17    0:10   100.00  99999.0   99999  99999.0   99999   99999.0   99999.0   99999.00 
  17    0:20   100.00  99999.0   99999  99999.0   99999   99999.0   99999.0   99999.00 
  17    0:30   100.00  99999.0   99999  99999.0   99999   99999.0   99999.0   99999.00 
  17    0:40   100.00  99999.0   99999  99999.0   99999   99999.0   99999.0   99999.00 
  17    0:50   100.00  99999.0   99999  99999.0   99999   99999.0   99999.0   99999.00 
  17    1:00   0.00   42.3    93    4.9    63     7.8   1016.9    0.00 
  17    1:10   0.00   42.2    93    3.7    57     5.6   1017.3    0.00 
  17    1:20   0.00   42.1    93    2.9    63     4.0   1017.3    0.00 
  17    1:30   0.00   42.0    93    3.0    71     4.6   1016.9    0.00 
  17    1:40   0.00   41.7    94    5.6    81    10.0   1016.9    0.00 
  17    1:50   0.00   41.4    94    7.4    86     9.5   1016.9    0.00 
  17    2:00   0.00   41.1    94    6.1    86     8.5   1016.9    0.00 
  17    2:10   0.00   40.8    94    5.0    92     7.9   1016.9    0.00 
  17    2:20   0.00   40.7    94    2.4    95     4.5   1016.9    0.00 
  17    2:30   0.00   40.9    94    1.6    72     3.4   1016.6    0.00 
  17    2:40   0.00   41.0    94    1.8    79     3.5   1016.6    0.00 
  17    2:50   0.00   40.7    94    2.3    37     3.7   1016.6    0.00 
  17    3:00   0.00   40.4    94    2.5    85     5.0   1016.6    0.00 
  17    3:10   0.00   40.5    94    2.1   109     4.2   1016.9    0.00 
  17    3:20   0.00   39.7    94    0.5   215     1.9   1016.9    0.00 
  17    3:30   0.00   39.6    94    1.4    76     4.2   1016.6    0.00 
  17    3:40   0.00   39.9    95    4.4   107     7.7   1016.3    0.00 
  17    3:50   0.00   40.5    94    7.1   105    10.4   1016.3    0.00 
  17    4:00   0.00   40.5    94    4.9   110    11.5   1016.3    0.00 
  17    4:10   0.00   40.4    94    6.9   111    10.5   1015.9    0.00 
  17    4:20   0.00   40.6    94    7.2   112    12.6   1015.9    0.00 
  17    4:30   0.00   40.6    94    7.3   108    14.0   1015.9    0.00 
  17    4:40   0.00   40.8    94    4.9   125     9.1   1016.3    0.00 
  17    4:50   0.00   40.5    93    3.6    85     6.6   1016.6    0.00 
  17    5:00   0.00   40.2    93    6.2    94    11.2   1016.3    0.00 
  17    5:10   0.00   40.7    93   10.0    94    13.1   1015.9    0.00 
  17    5:20   0.00   40.6    92    8.0    91    11.6   1015.9    0.00 
  17    5:30   0.00   40.5    92    8.0    94    12.9   1015.9    0.00 
  17    5:40   0.00   40.6    92    7.2    92    13.3   1015.9    0.00 
  17    5:50   0.00   40.8    91   10.3    79    15.3   1015.9    0.00 
  17    6:00   0.00   40.9    91    8.2    76    14.9   1015.9    0.00 
  17    6:10   0.00   40.9    90    5.6    60    10.4   1016.6    0.00 
  17    6:20   0.00   40.8    90    5.0    57     8.0   1016.9    0.00 
  17    6:30   0.00   40.7    90    7.7    88    13.8   1016.3    0.00 
  17    6:40   0.00   41.2    89   12.3    83    16.0   1015.9    0.00 
  17    6:50   0.00   41.0    89   14.2    89    19.6   1015.2    0.00 
  17    7:00   0.00   40.5    89   17.1    92    22.4   1014.6    0.00 

Return to Bodega Marine Reserve graphs page.


Western Regional Climate Center,wrcc@dri.edu